sensor_id;sensor_type;location;lat;lon;timestamp;P1;durP1;ratioP1;P2;durP2;ratioP2
70576;SDS011;58138;43.138;24.702;2023-02-21T00:02:38;6.57;;;3.95;;
70576;SDS011;58138;43.138;24.702;2023-02-21T00:05:22;9.32;;;5.38;;
70576;SDS011;58138;43.138;24.702;2023-02-21T00:08:06;11.25;;;6.07;;
70576;SDS011;58138;43.138;24.702;2023-02-21T00:10:50;8.40;;;4.78;;
70576;SDS011;58138;43.138;24.702;2023-02-21T00:13:37;11.35;;;6.70;;
70576;SDS011;58138;43.138;24.702;2023-02-21T00:16:21;6.63;;;3.65;;
70576;SDS011;58138;43.138;24.702;2023-02-21T00:19:05;6.38;;;4.05;;
70576;SDS011;58138;43.138;24.702;2023-02-21T00:21:49;4.63;;;3.10;;
70576;SDS011;58138;43.138;24.702;2023-02-21T00:24:34;3.15;;;2.22;;
70576;SDS011;58138;43.138;24.702;2023-02-21T00:27:18;7.88;;;3.83;;
70576;SDS011;58138;43.138;24.702;2023-02-21T00:30:02;7.97;;;5.20;;
70576;SDS011;58138;43.138;24.702;2023-02-21T00:32:47;10.13;;;5.68;;
70576;SDS011;58138;43.138;24.702;2023-02-21T00:35:31;10.90;;;6.05;;
70576;SDS011;58138;43.138;24.702;2023-02-21T00:38:15;7.03;;;4.85;;
70576;SDS011;58138;43.138;24.702;2023-02-21T00:40:58;9.23;;;5.30;;
70576;SDS011;58138;43.138;24.702;2023-02-21T00:43:43;8.27;;;5.03;;
70576;SDS011;58138;43.138;24.702;2023-02-21T00:46:27;7.05;;;4.43;;
70576;SDS011;58138;43.138;24.702;2023-02-21T00:49:11;7.38;;;4.10;;
70576;SDS011;58138;43.138;24.702;2023-02-21T00:51:55;6.88;;;4.70;;
70576;SDS011;58138;43.138;24.702;2023-02-21T00:54:39;7.68;;;5.35;;
70576;SDS011;58138;43.138;24.702;2023-02-21T00:57:23;6.43;;;4.38;;
70576;SDS011;58138;43.138;24.702;2023-02-21T01:00:12;7.55;;;4.15;;
70576;SDS011;58138;43.138;24.702;2023-02-21T01:02:58;5.80;;;4.05;;
70576;SDS011;58138;43.138;24.702;2023-02-21T01:05:42;7.55;;;4.85;;
70576;SDS011;58138;43.138;24.702;2023-02-21T01:08:27;7.68;;;4.20;;
70576;SDS011;58138;43.138;24.702;2023-02-21T01:11:18;8.20;;;4.55;;
70576;SDS011;58138;43.138;24.702;2023-02-21T01:14:03;6.25;;;3.70;;
70576;SDS011;58138;43.138;24.702;2023-02-21T01:16:48;7.28;;;4.40;;
70576;SDS011;58138;43.138;24.702;2023-02-21T01:19:32;6.60;;;4.07;;
70576;SDS011;58138;43.138;24.702;2023-02-21T01:22:17;6.65;;;4.20;;
70576;SDS011;58138;43.138;24.702;2023-02-21T01:25:00;7.15;;;3.90;;
70576;SDS011;58138;43.138;24.702;2023-02-21T01:27:44;5.85;;;3.78;;
70576;SDS011;58138;43.138;24.702;2023-02-21T01:30:28;9.68;;;4.68;;
70576;SDS011;58138;43.138;24.702;2023-02-21T01:33:12;7.10;;;4.45;;
70576;SDS011;58138;43.138;24.702;2023-02-21T01:35:56;8.23;;;5.07;;
70576;SDS011;58138;43.138;24.702;2023-02-21T01:38:40;7.32;;;4.55;;
70576;SDS011;58138;43.138;24.702;2023-02-21T01:41:24;6.72;;;4.13;;
70576;SDS011;58138;43.138;24.702;2023-02-21T01:44:26;7.07;;;4.50;;
70576;SDS011;58138;43.138;24.702;2023-02-21T01:47:19;7.82;;;4.40;;
70576;SDS011;58138;43.138;24.702;2023-02-21T01:50:06;6.57;;;4.65;;
70576;SDS011;58138;43.138;24.702;2023-02-21T01:53:21;11.10;;;5.20;;
70576;SDS011;58138;43.138;24.702;2023-02-21T01:56:07;9.85;;;5.60;;
70576;SDS011;58138;43.138;24.702;2023-02-21T01:58:52;7.90;;;5.10;;
70576;SDS011;58138;43.138;24.702;2023-02-21T02:01:41;8.35;;;4.90;;
70576;SDS011;58138;43.138;24.702;2023-02-21T02:04:46;9.63;;;5.18;;
70576;SDS011;58138;43.138;24.702;2023-02-21T02:07:31;4.93;;;3.50;;
70576;SDS011;58138;43.138;24.702;2023-02-21T02:10:15;6.63;;;3.42;;
70576;SDS011;58138;43.138;24.702;2023-02-21T02:13:14;6.13;;;3.55;;
70576;SDS011;58138;43.138;24.702;2023-02-21T02:16:05;7.38;;;3.85;;
70576;SDS011;58138;43.138;24.702;2023-02-21T02:45:10;3.40;;;2.30;;
70576;SDS011;58138;43.138;24.702;2023-02-21T02:48:11;8.43;;;4.50;;
70576;SDS011;58138;43.138;24.702;2023-02-21T02:50:38;4.00;;;2.83;;
70576;SDS011;58138;43.138;24.702;2023-02-21T02:53:04;4.82;;;2.70;;
70576;SDS011;58138;43.138;24.702;2023-02-21T02:55:35;3.70;;;2.08;;
70576;SDS011;58138;43.138;24.702;2023-02-21T02:58:04;2.08;;;1.58;;
70576;SDS011;58138;43.138;24.702;2023-02-21T03:00:31;3.08;;;1.90;;
70576;SDS011;58138;43.138;24.702;2023-02-21T03:08:52;3.88;;;1.95;;
70576;SDS011;58138;43.138;24.702;2023-02-21T03:11:20;4.47;;;2.00;;
70576;SDS011;58138;43.138;24.702;2023-02-21T03:13:48;2.58;;;2.10;;
70576;SDS011;58138;43.138;24.702;2023-02-21T03:19:16;2.95;;;1.50;;
70576;SDS011;58138;43.138;24.702;2023-02-21T03:21:53;1.77;;;1.63;;
70576;SDS011;58138;43.138;24.702;2023-02-21T03:24:21;1.58;;;1.40;;
70576;SDS011;58138;43.138;24.702;2023-02-21T03:26:48;3.05;;;1.48;;
70576;SDS011;58138;43.138;24.702;2023-02-21T03:29:16;2.67;;;1.60;;
70576;SDS011;58138;43.138;24.702;2023-02-21T03:31:44;5.22;;;1.38;;
70576;SDS011;58138;43.138;24.702;2023-02-21T03:34:11;3.78;;;1.90;;
70576;SDS011;58138;43.138;24.702;2023-02-21T03:36:36;6.22;;;2.60;;
70576;SDS011;58138;43.138;24.702;2023-02-21T03:39:03;2.97;;;2.22;;
70576;SDS011;58138;43.138;24.702;2023-02-21T03:41:28;5.10;;;2.92;;
70576;SDS011;58138;43.138;24.702;2023-02-21T03:43:54;3.90;;;3.00;;
70576;SDS011;58138;43.138;24.702;2023-02-21T03:46:19;3.00;;;2.20;;
70576;SDS011;58138;43.138;24.702;2023-02-21T03:48:45;2.67;;;2.15;;
70576;SDS011;58138;43.138;24.702;2023-02-21T03:51:10;2.60;;;2.05;;
70576;SDS011;58138;43.138;24.702;2023-02-21T03:53:36;2.80;;;2.03;;
70576;SDS011;58138;43.138;24.702;2023-02-21T03:56:01;4.20;;;2.28;;
70576;SDS011;58138;43.138;24.702;2023-02-21T03:58:27;2.92;;;2.10;;
70576;SDS011;58138;43.138;24.702;2023-02-21T04:00:53;2.13;;;1.70;;
70576;SDS011;58138;43.138;24.702;2023-02-21T04:03:18;3.92;;;1.92;;
70576;SDS011;58138;43.138;24.702;2023-02-21T04:05:44;2.67;;;2.00;;
70576;SDS011;58138;43.138;24.702;2023-02-21T04:08:10;2.65;;;2.10;;
70576;SDS011;58138;43.138;24.702;2023-02-21T04:10:35;2.65;;;1.67;;
70576;SDS011;58138;43.138;24.702;2023-02-21T04:13:01;1.92;;;1.27;;
70576;SDS011;58138;43.138;24.702;2023-02-21T04:15:26;3.15;;;1.65;;
70576;SDS011;58138;43.138;24.702;2023-02-21T04:17:52;2.80;;;1.80;;
70576;SDS011;58138;43.138;24.702;2023-02-21T04:20:17;4.70;;;2.67;;
70576;SDS011;58138;43.138;24.702;2023-02-21T04:22:43;2.70;;;1.40;;
70576;SDS011;58138;43.138;24.702;2023-02-21T04:25:08;1.85;;;1.38;;
70576;SDS011;58138;43.138;24.702;2023-02-21T04:27:34;2.00;;;0.90;;
70576;SDS011;58138;43.138;24.702;2023-02-21T04:30:00;4.18;;;2.40;;
70576;SDS011;58138;43.138;24.702;2023-02-21T04:32:25;1.77;;;1.35;;
70576;SDS011;58138;43.138;24.702;2023-02-21T04:34:51;3.13;;;2.08;;
70576;SDS011;58138;43.138;24.702;2023-02-21T04:37:17;1.48;;;1.23;;
70576;SDS011;58138;43.138;24.702;2023-02-21T04:39:42;1.60;;;1.50;;
70576;SDS011;58138;43.138;24.702;2023-02-21T04:42:08;2.05;;;1.17;;
70576;SDS011;58138;43.138;24.702;2023-02-21T04:44:34;2.25;;;1.35;;
70576;SDS011;58138;43.138;24.702;2023-02-21T04:46:59;1.58;;;1.15;;
70576;SDS011;58138;43.138;24.702;2023-02-21T04:49:25;2.90;;;2.28;;
70576;SDS011;58138;43.138;24.702;2023-02-21T04:51:51;2.72;;;2.10;;
70576;SDS011;58138;43.138;24.702;2023-02-21T04:54:17;1.27;;;1.17;;
70576;SDS011;58138;43.138;24.702;2023-02-21T04:56:43;1.63;;;1.40;;
70576;SDS011;58138;43.138;24.702;2023-02-21T04:59:08;5.47;;;2.05;;
70576;SDS011;58138;43.138;24.702;2023-02-21T05:01:34;6.43;;;2.13;;
70576;SDS011;58138;43.138;24.702;2023-02-21T05:04:00;4.65;;;1.58;;
70576;SDS011;58138;43.138;24.702;2023-02-21T05:06:26;2.15;;;1.17;;
70576;SDS011;58138;43.138;24.702;2023-02-21T05:08:53;3.25;;;2.10;;
70576;SDS011;58138;43.138;24.702;2023-02-21T05:11:19;3.83;;;2.25;;
70576;SDS011;58138;43.138;24.702;2023-02-21T05:13:46;1.92;;;1.60;;
70576;SDS011;58138;43.138;24.702;2023-02-21T05:16:11;4.75;;;2.65;;
70576;SDS011;58138;43.138;24.702;2023-02-21T05:18:37;1.75;;;1.63;;
70576;SDS011;58138;43.138;24.702;2023-02-21T05:21:04;3.92;;;1.88;;
70576;SDS011;58138;43.138;24.702;2023-02-21T05:23:30;4.13;;;2.50;;
70576;SDS011;58138;43.138;24.702;2023-02-21T05:26:06;4.57;;;2.50;;
70576;SDS011;58138;43.138;24.702;2023-02-21T05:28:33;2.85;;;1.98;;
70576;SDS011;58138;43.138;24.702;2023-02-21T05:30:59;3.05;;;1.88;;
70576;SDS011;58138;43.138;24.702;2023-02-21T05:33:24;3.28;;;2.97;;
70576;SDS011;58138;43.138;24.702;2023-02-21T05:35:50;5.63;;;2.60;;
70576;SDS011;58138;43.138;24.702;2023-02-21T05:38:17;6.13;;;2.33;;
70576;SDS011;58138;43.138;24.702;2023-02-21T05:40:44;5.80;;;4.18;;
70576;SDS011;58138;43.138;24.702;2023-02-21T05:43:11;1.88;;;1.70;;
70576;SDS011;58138;43.138;24.702;2023-02-21T05:45:36;10.63;;;3.67;;
70576;SDS011;58138;43.138;24.702;2023-02-21T05:48:01;12.95;;;2.50;;
70576;SDS011;58138;43.138;24.702;2023-02-21T05:50:28;7.63;;;3.03;;
70576;SDS011;58138;43.138;24.702;2023-02-21T05:52:54;5.72;;;2.10;;
70576;SDS011;58138;43.138;24.702;2023-02-21T05:55:20;3.72;;;2.08;;
70576;SDS011;58138;43.138;24.702;2023-02-21T05:57:46;3.88;;;1.92;;
70576;SDS011;58138;43.138;24.702;2023-02-21T06:00:22;3.45;;;2.00;;
70576;SDS011;58138;43.138;24.702;2023-02-21T06:02:49;5.47;;;1.75;;
70576;SDS011;58138;43.138;24.702;2023-02-21T06:05:16;2.90;;;1.90;;
70576;SDS011;58138;43.138;24.702;2023-02-21T06:07:42;2.78;;;1.70;;
70576;SDS011;58138;43.138;24.702;2023-02-21T06:10:07;6.78;;;2.75;;
70576;SDS011;58138;43.138;24.702;2023-02-21T06:12:33;4.72;;;2.20;;
70576;SDS011;58138;43.138;24.702;2023-02-21T06:14:58;5.18;;;2.03;;
70576;SDS011;58138;43.138;24.702;2023-02-21T06:17:24;4.55;;;1.63;;
70576;SDS011;58138;43.138;24.702;2023-02-21T06:19:49;5.30;;;2.22;;
70576;SDS011;58138;43.138;24.702;2023-02-21T06:22:15;3.58;;;1.85;;
70576;SDS011;58138;43.138;24.702;2023-02-21T06:24:41;5.40;;;2.28;;
70576;SDS011;58138;43.138;24.702;2023-02-21T06:27:07;4.60;;;1.95;;
70576;SDS011;58138;43.138;24.702;2023-02-21T06:29:33;4.65;;;2.25;;
70576;SDS011;58138;43.138;24.702;2023-02-21T06:31:59;3.28;;;1.92;;
70576;SDS011;58138;43.138;24.702;2023-02-21T06:34:25;0.50;;;0.50;;
70576;SDS011;58138;43.138;24.702;2023-02-21T06:36:51;1.33;;;1.05;;
70576;SDS011;58138;43.138;24.702;2023-02-21T06:39:17;2.15;;;1.70;;
70576;SDS011;58138;43.138;24.702;2023-02-21T06:41:43;2.90;;;2.03;;
70576;SDS011;58138;43.138;24.702;2023-02-21T06:44:08;4.03;;;1.33;;
70576;SDS011;58138;43.138;24.702;2023-02-21T06:46:34;2.15;;;1.58;;
70576;SDS011;58138;43.138;24.702;2023-02-21T06:49:01;2.85;;;2.13;;
70576;SDS011;58138;43.138;24.702;2023-02-21T06:51:27;7.68;;;2.05;;
70576;SDS011;58138;43.138;24.702;2023-02-21T06:53:55;17.02;;;1.90;;
70576;SDS011;58138;43.138;24.702;2023-02-21T06:56:21;3.67;;;2.08;;
70576;SDS011;58138;43.138;24.702;2023-02-21T06:58:47;3.20;;;2.00;;
70576;SDS011;58138;43.138;24.702;2023-02-21T07:01:13;2.97;;;1.58;;
70576;SDS011;58138;43.138;24.702;2023-02-21T07:03:39;3.05;;;2.30;;
70576;SDS011;58138;43.138;24.702;2023-02-21T07:06:07;5.07;;;2.40;;
70576;SDS011;58138;43.138;24.702;2023-02-21T07:08:32;6.82;;;2.17;;
70576;SDS011;58138;43.138;24.702;2023-02-21T07:10:58;2.78;;;2.40;;
70576;SDS011;58138;43.138;24.702;2023-02-21T07:13:23;5.07;;;2.45;;
70576;SDS011;58138;43.138;24.702;2023-02-21T07:15:49;2.92;;;2.25;;
70576;SDS011;58138;43.138;24.702;2023-02-21T07:18:14;2.33;;;1.40;;
70576;SDS011;58138;43.138;24.702;2023-02-21T07:20:40;4.13;;;1.52;;
70576;SDS011;58138;43.138;24.702;2023-02-21T07:23:05;3.85;;;2.58;;
70576;SDS011;58138;43.138;24.702;2023-02-21T07:25:31;4.13;;;2.65;;
70576;SDS011;58138;43.138;24.702;2023-02-21T07:27:56;16.77;;;2.13;;
70576;SDS011;58138;43.138;24.702;2023-02-21T07:30:22;26.65;;;2.50;;
70576;SDS011;58138;43.138;24.702;2023-02-21T07:32:47;4.93;;;2.55;;
70576;SDS011;58138;43.138;24.702;2023-02-21T07:35:13;5.95;;;1.85;;
70576;SDS011;58138;43.138;24.702;2023-02-21T07:37:38;2.60;;;2.05;;
70576;SDS011;58138;43.138;24.702;2023-02-21T07:40:04;4.85;;;1.13;;
70576;SDS011;58138;43.138;24.702;2023-02-21T07:42:33;4.75;;;1.90;;
70576;SDS011;58138;43.138;24.702;2023-02-21T07:44:58;4.35;;;1.60;;
70576;SDS011;58138;43.138;24.702;2023-02-21T07:47:24;2.15;;;1.50;;
70576;SDS011;58138;43.138;24.702;2023-02-21T07:49:50;2.22;;;1.40;;
70576;SDS011;58138;43.138;24.702;2023-02-21T07:52:18;4.68;;;1.88;;
70576;SDS011;58138;43.138;24.702;2023-02-21T07:54:44;1.90;;;1.60;;
70576;SDS011;58138;43.138;24.702;2023-02-21T07:57:09;2.25;;;1.67;;
70576;SDS011;58138;43.138;24.702;2023-02-21T07:59:35;2.72;;;1.70;;
70576;SDS011;58138;43.138;24.702;2023-02-21T08:02:01;2.25;;;1.20;;
70576;SDS011;58138;43.138;24.702;2023-02-21T08:04:26;4.57;;;1.10;;
70576;SDS011;58138;43.138;24.702;2023-02-21T08:06:57;7.80;;;1.80;;
70576;SDS011;58138;43.138;24.702;2023-02-21T08:09:26;6.68;;;1.55;;
70576;SDS011;58138;43.138;24.702;2023-02-21T08:11:51;8.65;;;1.50;;
70576;SDS011;58138;43.138;24.702;2023-02-21T08:14:17;1.88;;;1.17;;
70576;SDS011;58138;43.138;24.702;2023-02-21T08:16:42;2.75;;;1.13;;
70576;SDS011;58138;43.138;24.702;2023-02-21T08:19:08;2.17;;;1.65;;
70576;SDS011;58138;43.138;24.702;2023-02-21T08:21:34;2.75;;;2.00;;
70576;SDS011;58138;43.138;24.702;2023-02-21T08:23:59;2.65;;;1.08;;
70576;SDS011;58138;43.138;24.702;2023-02-21T08:26:25;3.53;;;1.60;;
70576;SDS011;58138;43.138;24.702;2023-02-21T08:28:50;4.78;;;1.40;;
70576;SDS011;58138;43.138;24.702;2023-02-21T08:31:16;2.05;;;1.30;;
70576;SDS011;58138;43.138;24.702;2023-02-21T08:33:41;3.95;;;1.98;;
70576;SDS011;58138;43.138;24.702;2023-02-21T08:36:08;1.48;;;1.20;;
70576;SDS011;58138;43.138;24.702;2023-02-21T08:38:34;3.80;;;1.30;;
70576;SDS011;58138;43.138;24.702;2023-02-21T08:40:59;3.20;;;1.10;;
70576;SDS011;58138;43.138;24.702;2023-02-21T08:43:26;1.58;;;1.10;;
70576;SDS011;58138;43.138;24.702;2023-02-21T08:45:52;2.70;;;1.30;;
70576;SDS011;58138;43.138;24.702;2023-02-21T08:48:18;2.88;;;1.38;;
70576;SDS011;58138;43.138;24.702;2023-02-21T08:50:44;1.63;;;1.40;;
70576;SDS011;58138;43.138;24.702;2023-02-21T08:53:13;3.38;;;1.50;;
70576;SDS011;58138;43.138;24.702;2023-02-21T08:55:38;3.92;;;1.88;;
70576;SDS011;58138;43.138;24.702;2023-02-21T08:58:04;4.78;;;1.50;;
70576;SDS011;58138;43.138;24.702;2023-02-21T09:00:30;4.95;;;2.10;;
70576;SDS011;58138;43.138;24.702;2023-02-21T09:02:56;1.65;;;1.30;;
70576;SDS011;58138;43.138;24.702;2023-02-21T09:05:24;2.55;;;1.90;;
70576;SDS011;58138;43.138;24.702;2023-02-21T09:07:52;6.97;;;1.65;;
70576;SDS011;58138;43.138;24.702;2023-02-21T09:10:23;2.70;;;1.30;;
70576;SDS011;58138;43.138;24.702;2023-02-21T09:12:52;3.33;;;1.90;;
70576;SDS011;58138;43.138;24.702;2023-02-21T09:15:18;3.85;;;2.10;;
70576;SDS011;58138;43.138;24.702;2023-02-21T09:17:43;2.22;;;1.52;;
70576;SDS011;58138;43.138;24.702;2023-02-21T09:20:10;2.72;;;1.60;;
70576;SDS011;58138;43.138;24.702;2023-02-21T09:22:43;4.38;;;1.90;;
70576;SDS011;58138;43.138;24.702;2023-02-21T09:25:09;3.60;;;1.50;;
70576;SDS011;58138;43.138;24.702;2023-02-21T09:27:37;4.43;;;2.30;;
70576;SDS011;58138;43.138;24.702;2023-02-21T09:32:33;2.38;;;1.80;;
70576;SDS011;58138;43.138;24.702;2023-02-21T09:34:59;5.82;;;2.00;;
70576;SDS011;58138;43.138;24.702;2023-02-21T09:37:25;4.13;;;1.65;;
70576;SDS011;58138;43.138;24.702;2023-02-21T09:39:50;6.07;;;3.30;;
70576;SDS011;58138;43.138;24.702;2023-02-21T09:42:19;5.50;;;3.05;;
70576;SDS011;58138;43.138;24.702;2023-02-21T09:44:46;4.57;;;1.63;;
70576;SDS011;58138;43.138;24.702;2023-02-21T09:47:14;3.70;;;1.60;;
70576;SDS011;58138;43.138;24.702;2023-02-21T09:49:45;3.45;;;1.40;;
70576;SDS011;58138;43.138;24.702;2023-02-21T09:52:17;2.88;;;1.33;;
70576;SDS011;58138;43.138;24.702;2023-02-21T09:54:46;3.10;;;1.73;;
70576;SDS011;58138;43.138;24.702;2023-02-21T09:57:16;2.20;;;1.20;;
70576;SDS011;58138;43.138;24.702;2023-02-21T09:59:42;6.45;;;1.90;;
70576;SDS011;58138;43.138;24.702;2023-02-21T10:16:01;4.10;;;2.22;;
70576;SDS011;58138;43.138;24.702;2023-02-21T10:23:50;2.60;;;1.40;;
70576;SDS011;58138;43.138;24.702;2023-02-21T10:26:18;3.70;;;1.90;;
70576;SDS011;58138;43.138;24.702;2023-02-21T10:28:46;3.63;;;1.75;;
70576;SDS011;58138;43.138;24.702;2023-02-21T10:31:17;3.55;;;1.80;;
70576;SDS011;58138;43.138;24.702;2023-02-21T10:33:48;3.88;;;1.10;;
70576;SDS011;58138;43.138;24.702;2023-02-21T10:36:18;3.78;;;1.20;;
70576;SDS011;58138;43.138;24.702;2023-02-21T10:41:47;1.52;;;1.30;;
70576;SDS011;58138;43.138;24.702;2023-02-21T10:44:16;2.60;;;1.77;;
70576;SDS011;58138;43.138;24.702;2023-02-21T10:47:32;1.83;;;1.52;;
70576;SDS011;58138;43.138;24.702;2023-02-21T10:49:59;2.72;;;1.27;;
70576;SDS011;58138;43.138;24.702;2023-02-21T10:52:26;3.00;;;1.60;;
70576;SDS011;58138;43.138;24.702;2023-02-21T10:57:30;2.45;;;1.25;;
70576;SDS011;58138;43.138;24.702;2023-02-21T10:59:56;2.75;;;1.30;;
70576;SDS011;58138;43.138;24.702;2023-02-21T11:02:31;3.15;;;1.17;;
70576;SDS011;58138;43.138;24.702;2023-02-21T11:05:18;8.32;;;1.52;;
70576;SDS011;58138;43.138;24.702;2023-02-21T11:08:00;9.82;;;1.70;;
70576;SDS011;58138;43.138;24.702;2023-02-21T11:11:00;6.55;;;1.40;;
70576;SDS011;58138;43.138;24.702;2023-02-21T11:13:19;2.38;;;1.25;;
70576;SDS011;58138;43.138;24.702;2023-02-21T11:15:46;4.25;;;1.25;;
70576;SDS011;58138;43.138;24.702;2023-02-21T11:18:13;2.25;;;1.00;;
70576;SDS011;58138;43.138;24.702;2023-02-21T11:20:47;1.27;;;1.08;;
70576;SDS011;58138;43.138;24.702;2023-02-21T11:23:31;2.17;;;1.08;;
70576;SDS011;58138;43.138;24.702;2023-02-21T11:26:05;2.75;;;1.30;;
70576;SDS011;58138;43.138;24.702;2023-02-21T11:28:35;1.58;;;1.10;;
70576;SDS011;58138;43.138;24.702;2023-02-21T11:31:10;5.10;;;1.20;;
70576;SDS011;58138;43.138;24.702;2023-02-21T11:33:40;7.45;;;1.10;;
70576;SDS011;58138;43.138;24.702;2023-02-21T11:38:57;4.03;;;1.20;;
70576;SDS011;58138;43.138;24.702;2023-02-21T11:41:27;2.92;;;1.23;;
70576;SDS011;58138;43.138;24.702;2023-02-21T11:43:55;10.27;;;1.25;;
70576;SDS011;58138;43.138;24.702;2023-02-21T11:46:38;6.53;;;1.00;;
70576;SDS011;58138;43.138;24.702;2023-02-21T11:51:40;3.27;;;1.20;;
70576;SDS011;58138;43.138;24.702;2023-02-21T12:07:24;12.15;;;1.52;;
70576;SDS011;58138;43.138;24.702;2023-02-21T12:10:07;6.50;;;1.38;;
70576;SDS011;58138;43.138;24.702;2023-02-21T12:15:29;14.25;;;1.90;;
70576;SDS011;58138;43.138;24.702;2023-02-21T12:18:16;2.75;;;1.40;;
70576;SDS011;58138;43.138;24.702;2023-02-21T12:21:08;2.13;;;1.10;;
70576;SDS011;58138;43.138;24.702;2023-02-21T12:23:57;5.55;;;1.27;;
70576;SDS011;58138;43.138;24.702;2023-02-21T12:32:30;1.73;;;1.00;;
70576;SDS011;58138;43.138;24.702;2023-02-21T12:38:02;8.02;;;1.95;;
70576;SDS011;58138;43.138;24.702;2023-02-21T12:40:40;11.25;;;1.48;;
70576;SDS011;58138;43.138;24.702;2023-02-21T12:48:30;4.40;;;1.35;;
70576;SDS011;58138;43.138;24.702;2023-02-21T12:51:10;4.25;;;1.27;;
70576;SDS011;58138;43.138;24.702;2023-02-21T12:54:16;14.07;;;1.88;;
70576;SDS011;58138;43.138;24.702;2023-02-21T13:01:47;4.53;;;2.28;;
70576;SDS011;58138;43.138;24.702;2023-02-21T13:07:03;5.25;;;1.60;;
70576;SDS011;58138;43.138;24.702;2023-02-21T13:09:40;2.50;;;1.70;;
70576;SDS011;58138;43.138;24.702;2023-02-21T13:12:13;3.97;;;1.67;;
70576;SDS011;58138;43.138;24.702;2023-02-21T13:17:12;2.40;;;1.40;;
70576;SDS011;58138;43.138;24.702;2023-02-21T13:19:41;5.35;;;1.90;;
70576;SDS011;58138;43.138;24.702;2023-02-21T13:28:34;7.55;;;2.40;;
70576;SDS011;58138;43.138;24.702;2023-02-21T13:31:06;3.17;;;1.67;;
70576;SDS011;58138;43.138;24.702;2023-02-21T13:33:50;4.60;;;1.60;;
70576;SDS011;58138;43.138;24.702;2023-02-21T13:36:38;8.00;;;3.95;;
70576;SDS011;58138;43.138;24.702;2023-02-21T13:41:37;7.82;;;2.53;;
70576;SDS011;58138;43.138;24.702;2023-02-21T13:44:08;5.05;;;1.75;;
70576;SDS011;58138;43.138;24.702;2023-02-21T13:47:05;6.28;;;1.40;;
70576;SDS011;58138;43.138;24.702;2023-02-21T13:57:46;2.67;;;1.50;;
70576;SDS011;58138;43.138;24.702;2023-02-21T14:02:55;2.95;;;1.20;;
70576;SDS011;58138;43.138;24.702;2023-02-21T14:06:14;2.95;;;1.60;;
70576;SDS011;58138;43.138;24.702;2023-02-21T14:08:26;6.43;;;3.13;;
70576;SDS011;58138;43.138;24.702;2023-02-21T14:11:19;1.40;;;1.30;;
70576;SDS011;58138;43.138;24.702;2023-02-21T14:18:40;2.85;;;1.70;;
70576;SDS011;58138;43.138;24.702;2023-02-21T14:21:09;16.75;;;3.25;;
70576;SDS011;58138;43.138;24.702;2023-02-21T14:29:27;5.57;;;2.90;;
70576;SDS011;58138;43.138;24.702;2023-02-21T14:36:59;4.63;;;3.28;;
70576;SDS011;58138;43.138;24.702;2023-02-21T14:39:30;6.57;;;1.75;;
70576;SDS011;58138;43.138;24.702;2023-02-21T14:44:55;3.10;;;2.17;;
70576;SDS011;58138;43.138;24.702;2023-02-21T14:47:39;6.10;;;2.53;;
70576;SDS011;58138;43.138;24.702;2023-02-21T15:03:26;9.77;;;4.40;;
70576;SDS011;58138;43.138;24.702;2023-02-21T15:05:57;4.47;;;2.10;;
70576;SDS011;58138;43.138;24.702;2023-02-21T15:08:28;4.28;;;2.30;;
70576;SDS011;58138;43.138;24.702;2023-02-21T15:11:02;4.50;;;2.38;;
70576;SDS011;58138;43.138;24.702;2023-02-21T15:13:43;2.90;;;2.40;;
70576;SDS011;58138;43.138;24.702;2023-02-21T15:16:09;3.85;;;2.90;;
70576;SDS011;58138;43.138;24.702;2023-02-21T15:18:38;5.45;;;3.08;;
70576;SDS011;58138;43.138;24.702;2023-02-21T15:23:36;5.75;;;2.58;;
70576;SDS011;58138;43.138;24.702;2023-02-21T15:26:22;7.13;;;3.28;;
70576;SDS011;58138;43.138;24.702;2023-02-21T15:29:16;4.63;;;2.75;;
70576;SDS011;58138;43.138;24.702;2023-02-21T15:31:51;4.18;;;2.90;;
70576;SDS011;58138;43.138;24.702;2023-02-21T15:34:23;6.78;;;3.40;;
70576;SDS011;58138;43.138;24.702;2023-02-21T15:36:57;11.00;;;3.30;;
70576;SDS011;58138;43.138;24.702;2023-02-21T15:39:37;4.03;;;2.90;;
70576;SDS011;58138;43.138;24.702;2023-02-21T15:42:06;5.28;;;3.10;;
70576;SDS011;58138;43.138;24.702;2023-02-21T15:44:53;14.43;;;9.38;;
70576;SDS011;58138;43.138;24.702;2023-02-21T15:47:21;5.90;;;4.05;;
70576;SDS011;58138;43.138;24.702;2023-02-21T15:55:15;8.65;;;4.80;;
70576;SDS011;58138;43.138;24.702;2023-02-21T15:57:40;6.18;;;4.47;;
70576;SDS011;58138;43.138;24.702;2023-02-21T16:02:47;8.40;;;5.37;;
70576;SDS011;58138;43.138;24.702;2023-02-21T16:05:26;9.20;;;5.85;;
70576;SDS011;58138;43.138;24.702;2023-02-21T16:07:52;9.55;;;6.28;;
70576;SDS011;58138;43.138;24.702;2023-02-21T16:10:22;4.25;;;3.22;;
70576;SDS011;58138;43.138;24.702;2023-02-21T16:12:58;9.57;;;4.97;;
70576;SDS011;58138;43.138;24.702;2023-02-21T16:15:34;10.35;;;5.97;;
70576;SDS011;58138;43.138;24.702;2023-02-21T16:18:04;6.68;;;4.55;;
70576;SDS011;58138;43.138;24.702;2023-02-21T16:20:35;13.18;;;7.75;;
70576;SDS011;58138;43.138;24.702;2023-02-21T16:26:18;17.70;;;12.27;;
70576;SDS011;58138;43.138;24.702;2023-02-21T16:28:49;18.63;;;11.32;;
70576;SDS011;58138;43.138;24.702;2023-02-21T16:31:15;22.70;;;13.27;;
70576;SDS011;58138;43.138;24.702;2023-02-21T16:33:48;18.30;;;11.15;;
70576;SDS011;58138;43.138;24.702;2023-02-21T16:36:18;14.73;;;7.80;;
70576;SDS011;58138;43.138;24.702;2023-02-21T16:38:47;13.93;;;8.68;;
70576;SDS011;58138;43.138;24.702;2023-02-21T16:41:13;23.13;;;12.80;;
70576;SDS011;58138;43.138;24.702;2023-02-21T16:43:39;17.88;;;11.65;;
70576;SDS011;58138;43.138;24.702;2023-02-21T16:46:04;18.77;;;11.52;;
70576;SDS011;58138;43.138;24.702;2023-02-21T16:48:30;28.58;;;17.45;;
70576;SDS011;58138;43.138;24.702;2023-02-21T16:50:59;21.58;;;13.20;;
70576;SDS011;58138;43.138;24.702;2023-02-21T16:53:29;27.40;;;15.48;;
70576;SDS011;58138;43.138;24.702;2023-02-21T16:55:55;19.42;;;11.05;;
70576;SDS011;58138;43.138;24.702;2023-02-21T17:00:56;19.65;;;12.07;;
70576;SDS011;58138;43.138;24.702;2023-02-21T17:03:24;20.83;;;12.48;;
70576;SDS011;58138;43.138;24.702;2023-02-21T17:05:50;16.40;;;8.80;;
70576;SDS011;58138;43.138;24.702;2023-02-21T17:08:18;15.93;;;9.38;;
70576;SDS011;58138;43.138;24.702;2023-02-21T17:10:44;15.65;;;8.75;;
70576;SDS011;58138;43.138;24.702;2023-02-21T17:13:09;9.25;;;6.72;;
70576;SDS011;58138;43.138;24.702;2023-02-21T17:15:35;16.92;;;10.73;;
70576;SDS011;58138;43.138;24.702;2023-02-21T17:18:00;12.10;;;7.38;;
70576;SDS011;58138;43.138;24.702;2023-02-21T17:20:27;9.70;;;7.20;;
70576;SDS011;58138;43.138;24.702;2023-02-21T17:22:53;14.07;;;9.38;;
70576;SDS011;58138;43.138;24.702;2023-02-21T17:25:19;10.13;;;6.05;;
70576;SDS011;58138;43.138;24.702;2023-02-21T17:27:46;9.15;;;6.38;;
70576;SDS011;58138;43.138;24.702;2023-02-21T17:30:12;16.25;;;8.98;;
70576;SDS011;58138;43.138;24.702;2023-02-21T17:32:38;15.05;;;9.10;;
70576;SDS011;58138;43.138;24.702;2023-02-21T17:35:04;9.98;;;6.18;;
70576;SDS011;58138;43.138;24.702;2023-02-21T17:37:29;9.90;;;6.57;;
70576;SDS011;58138;43.138;24.702;2023-02-21T17:39:57;11.45;;;8.38;;
70576;SDS011;58138;43.138;24.702;2023-02-21T17:42:23;8.82;;;6.90;;
70576;SDS011;58138;43.138;24.702;2023-02-21T17:44:49;8.73;;;5.20;;
70576;SDS011;58138;43.138;24.702;2023-02-21T17:47:19;13.13;;;7.28;;
70576;SDS011;58138;43.138;24.702;2023-02-21T17:49:47;10.77;;;8.15;;
70576;SDS011;58138;43.138;24.702;2023-02-21T17:52:13;8.95;;;6.47;;
70576;SDS011;58138;43.138;24.702;2023-02-21T17:54:39;11.68;;;8.05;;
70576;SDS011;58138;43.138;24.702;2023-02-21T17:57:05;11.15;;;6.47;;